Time;durP1;ratioP1;P1;durP2;ratioP2;P2;SDS_P1;SDS_P2;PMS_P1;PMS_P2;Temp;Humidity;BMP_temperature;BMP_pressure;BME280_temperature;BME280_humidity;BME280_pressure;Samples;Min_cycle;Max_cycle;Signal;HPM_P1;HPM_P2
2023/06/20 08:29:25;;;;;;;8.50;7.20;;;;;;;24.93;56.43;98966.44;102676;1293;600665;-22
2023/06/20 08:31:53;;;;;;;8.00;7.20;;;;;;;25.07;57.11;98965.49;104834;1271;61187;-22
2023/06/20 08:34:20;;;;;;;9.20;6.70;;;;;;;25.33;55.03;98963.84;104854;1266;62634;-22
2023/06/20 08:36:48;;;;;;;7.10;6.50;;;;;;;25.66;55.40;98960.73;104844;1263;71098;-22
2023/06/20 08:39:17;;;;;;;6.40;5.80;;;;;;;26.08;54.86;98956.09;104804;1270;73376;-22
2023/06/20 08:41:45;;;;;;;6.90;6.00;;;;;;;26.46;53.82;98954.00;104753;1266;72690;-23
2023/06/20 08:51:53;;;;;;;6.90;5.90;;;;;;;26.47;51.10;98956.91;102649;1292;599895;-22
2023/06/20 08:54:21;;;;;;;7.00;6.30;;;;;;;26.41;50.54;98954.13;104856;1272;61225;-22
2023/06/20 08:56:49;;;;;;;6.80;6.10;;;;;;;26.64;51.59;98951.16;104812;1267;61174;-22
2023/06/20 08:59:21;;;;;;;8.40;6.00;;;;;;;26.67;51.44;98955.64;104861;1270;71166;-22
2023/06/20 09:01:49;;;;;;;8.50;6.00;;;;;;;26.79;51.03;98953.91;104750;1267;74355;-22
2023/06/20 09:04:18;;;;;;;6.20;5.70;;;;;;;26.70;51.79;98956.16;104814;1271;72655;-22
2023/06/20 09:06:50;;;;;;;6.60;6.10;;;;;;;26.72;51.22;98953.20;102915;1272;61707;-22
2023/06/20 09:09:18;;;;;;;6.40;5.80;;;;;;;26.61;51.04;98957.66;104974;1264;61116;-22
2023/06/20 09:11:56;;;;;;;5.80;4.80;;;;;;;26.62;50.77;98957.14;105155;1264;70990;-22
2023/06/20 09:14:27;;;;;;;6.30;5.70;;;;;;;26.76;50.18;98952.44;105331;1257;73132;-24
2023/06/20 09:16:56;;;;;;;6.70;6.10;;;;;;;26.98;50.17;98953.79;105293;1263;72627;-24
2023/06/20 09:19:24;;;;;;;7.00;5.70;;;;;;;27.12;50.33;98952.35;105591;1257;61103;-24
2023/06/20 09:28:15;;;;;;;7.40;5.30;;;;;;;27.54;47.53;98951.39;102754;1289;599640;-23
2023/06/20 09:30:45;;;;;;;6.20;5.20;;;;;;;27.02;48.68;98947.89;104786;1270;61235;-23
2023/06/20 09:33:13;;;;;;;6.30;5.70;;;;;;;26.19;50.78;98953.85;104855;1271;61170;-23
2023/06/20 09:35:41;;;;;;;6.30;5.60;;;;;;;25.87;51.74;98957.60;104799;1273;72197;-23
2023/06/20 09:38:09;;;;;;;6.10;5.60;;;;;;;25.82;52.47;98957.40;105548;1263;74404;-23
2023/06/20 09:48:15;;;;;;;5.60;4.80;;;;;;;26.55;49.59;98939.38;102672;1294;599445;-22
2023/06/20 09:50:43;;;;;;;5.60;5.10;;;;;;;25.99;51.71;98944.96;104707;1273;61212;-22
2023/06/20 09:53:17;;;;;;;5.40;4.90;;;;;;;25.82;51.39;98943.70;104876;1266;61062;-22
2023/06/20 09:55:44;;;;;;;5.60;4.90;;;;;;;25.72;51.04;98943.67;104804;1266;72217;-22
2023/06/20 09:58:12;;;;;;;6.20;5.20;;;;;;;25.97;51.05;98939.95;104785;1272;74511;-22
2023/06/20 10:00:40;;;;;;;5.30;4.80;;;;;;;26.43;50.01;98935.64;104774;1274;71769;-22
2023/06/20 10:03:10;;;;;;;8.00;5.30;;;;;;;26.65;48.94;98935.70;102854;1269;61137;-22
2023/06/20 10:05:38;;;;;;;5.10;4.70;;;;;;;26.85;48.81;98934.79;104856;1264;61128;-22
2023/06/20 10:08:06;;;;;;;5.40;4.90;;;;;;;27.13;47.94;98936.06;104862;1270;71022;-22
2023/06/20 10:10:33;;;;;;;5.70;5.20;;;;;;;26.77;48.61;98934.30;104889;1264;73100;-22
2023/06/20 10:13:01;;;;;;;5.30;4.50;;;;;;;26.50;49.35;98939.27;105064;1263;71628;-22
2023/06/20 10:15:28;;;;;;;6.40;4.60;;;;;;;26.46;48.62;98934.20;104599;1271;61268;-22
2023/06/20 10:17:56;;;;;;;5.30;4.80;;;;;;;26.68;46.41;98934.96;104635;1264;61090;-22
2023/06/20 10:20:33;;;;;;;4.80;4.40;;;;;;;27.08;45.16;98931.60;104743;1270;72978;-22
2023/06/20 10:30:53;;;;;;;4.10;3.70;;;;;;;26.60;46.58;98937.40;102625;1293;600247;-22
2023/06/20 10:41:08;;;;;;;4.70;4.10;;;;;;;27.21;44.98;98935.05;102602;1295;599382;-22
2023/06/20 10:43:55;;;;;;;4.80;4.40;;;;;;;27.24;44.89;98936.66;104786;1274;61193;-22
2023/06/20 10:46:35;;;;;;;6.70;4.10;;;;;;;26.95;44.54;98941.54;104851;1268;61066;-22
2023/06/20 10:49:03;;;;;;;4.40;3.90;;;;;;;26.90;45.25;98939.18;104824;1271;72271;-23
2023/06/20 10:51:42;;;;;;;6.40;4.30;;;;;;;26.60;46.86;98936.38;104868;1271;74367;-23
2023/06/20 10:54:10;;;;;;;4.40;4.00;;;;;;;26.45;48.05;98936.48;102651;1264;3000155;-23
2023/06/20 11:04:21;;;;;;;4.10;3.80;;;;;;;26.70;47.74;98925.44;102662;1292;600622;-22
2023/06/20 11:06:49;;;;;;;8.30;4.50;;;;;;;26.34;46.63;98926.94;104828;1273;61196;-22
2023/06/20 11:09:20;;;;;;;4.80;4.30;;;;;;;26.15;46.98;98928.05;104909;1267;61057;-22
2023/06/20 11:11:48;;;;;;;4.80;3.80;;;;;;;26.23;47.70;98926.29;104845;1273;71724;-22
2023/06/20 11:14:22;;;;;;;4.90;3.80;;;;;;;26.42;48.69;98927.71;104844;1271;74355;-22
2023/06/20 11:16:51;;;;;;;4.60;4.00;;;;;;;26.66;47.42;98920.50;102935;1267;2599291;-23
2023/06/20 11:19:22;;;;;;;4.20;3.80;;;;;;;26.66;46.68;98919.06;105219;1265;61240;-22
2023/06/20 11:22:02;;;;;;;5.90;3.90;;;;;;;26.40;45.78;98918.70;105507;1258;61064;-22
2023/06/20 11:24:31;;;;;;;4.80;3.90;;;;;;;26.12;45.15;98919.16;105483;1260;72226;-22
2023/06/20 11:27:12;;;;;;;4.50;4.00;;;;;;;26.06;45.67;98920.14;105195;1262;73029;-22
2023/06/20 11:29:40;;;;;;;5.50;4.70;;;;;;;26.25;46.80;98915.96;105359;1263;73687;-23
2023/06/20 11:32:11;;;;;;;4.30;4.00;;;;;;;26.23;45.71;98912.92;105358;1255;61125;-24
2023/06/20 11:34:53;;;;;;;4.60;4.20;;;;;;;26.36;45.89;98906.27;105402;1257;61025;-23
2023/06/20 11:44:24;;;;;;;4.40;4.00;;;;;;;26.41;44.66;98888.18;102703;1292;600192;-23
2023/06/20 11:46:52;;;;;;;4.60;3.90;;;;;;;26.57;44.99;98882.59;104858;1271;61200;-23
2023/06/20 11:49:30;;;;;;;4.40;4.00;;;;;;;26.60;46.31;98880.05;104706;1267;62105;-23
2023/06/20 11:51:58;;;;;;;4.70;4.20;;;;;;;26.55;46.92;98875.83;104791;1275;71003;-23
2023/06/20 11:54:26;;;;;;;4.70;3.90;;;;;;;26.60;44.71;98874.45;104839;1267;74304;-23
2023/06/20 11:56:54;;;;;;;4.30;3.90;;;;;;;26.82;45.26;98873.46;102607;1267;2849964;-23
2023/06/20 11:59:25;;;;;;;15.80;4.90;;;;;;;26.90;45.72;98870.11;104890;1263;61196;-24
2023/06/20 12:01:52;;;;;;;4.50;3.90;;;;;;;26.92;45.60;98871.80;104902;1268;61153;-24
2023/06/20 12:04:21;;;;;;;4.60;4.20;;;;;;;26.74;44.43;98868.33;105139;1268;71290;-24
2023/06/20 12:06:52;;;;;;;4.20;3.80;;;;;;;26.85;46.94;98864.89;104820;1263;76200;-24
2023/06/20 12:09:23;;;;;;;5.10;4.20;;;;;;;26.93;46.26;98857.72;104804;1263;70471;-24
2023/06/20 12:19:30;;;;;;;4.80;4.40;;;;;;;26.85;47.62;98852.98;102668;1290;600210;-22
2023/06/20 12:21:59;;;;;;;5.00;4.50;;;;;;;27.32;45.96;98851.54;105714;1253;61226;-22
2023/06/20 12:24:27;;;;;;;4.90;4.40;;;;;;;27.44;45.12;98846.04;105671;1254;62045;-22
2023/06/20 12:26:55;;;;;;;5.00;4.50;;;;;;;27.15;45.47;98846.59;105794;1259;70964;-22
2023/06/20 12:29:22;;;;;;;7.70;4.60;;;;;;;26.65;46.66;98842.63;105674;1253;73875;-22
2023/06/20 12:31:50;;;;;;;4.80;4.40;;;;;;;26.28;47.26;98838.92;105647;1259;72443;-22
2023/06/20 12:34:18;;;;;;;4.90;4.40;;;;;;;26.35;47.74;98837.92;103980;1257;2580715;-22
2023/06/20 12:36:48;;;;;;;6.90;4.90;;;;;;;26.44;46.79;98836.37;105924;1251;61275;-22
2023/06/20 12:39:17;;;;;;;5.20;4.70;;;;;;;26.72;47.06;98829.67;105723;1257;72223;-22
2023/06/20 12:41:44;;;;;;;6.20;4.50;;;;;;;26.97;47.09;98830.55;105720;1251;76212;-22
2023/06/20 12:44:12;;;;;;;5.30;4.40;;;;;;;27.12;45.03;98828.42;105849;1253;72451;-22
2023/06/20 12:46:41;;;;;;;5.10;4.60;;;;;;;27.29;44.31;98827.60;105724;1257;61171;-22
2023/06/20 12:49:08;;;;;;;4.80;4.30;;;;;;;26.99;46.01;98825.45;105573;1251;61110;-22
2023/06/20 12:51:36;;;;;;;5.30;4.70;;;;;;;26.88;45.87;98820.77;105757;1251;72302;-22
2023/06/20 12:54:04;;;;;;;14.80;5.10;;;;;;;26.76;45.67;98816.14;105785;1257;74454;-22
2023/06/20 12:56:32;;;;;;;5.10;4.60;;;;;;;26.70;46.65;98813.70;105462;1258;71839;-22
2023/06/20 12:59:00;;;;;;;4.60;4.10;;;;;;;27.08;45.41;98811.84;105583;1254;61155;-22
2023/06/20 13:01:28;;;;;;;4.10;3.80;;;;;;;26.90;42.48;98815.39;105691;1254;61134;-23
2023/06/20 13:03:56;;;;;;;4.40;3.80;;;;;;;26.87;44.97;98814.70;105712;1253;72983;-22
2023/06/20 13:06:24;;;;;;;11.00;4.50;;;;;;;26.93;44.69;98813.45;105742;1254;76384;-22
2023/06/20 13:16:32;;;;;;;5.60;5.00;;;;;;;27.19;44.66;98804.62;102667;1292;599875;-22
2023/06/20 13:19:01;;;;;;;5.70;4.70;;;;;;;27.20;44.85;98806.23;104789;1268;61141;-22
2023/06/20 13:21:29;;;;;;;5.00;4.30;;;;;;;27.29;44.98;98804.77;105070;1267;61161;-22
2023/06/20 13:23:57;;;;;;;5.30;4.40;;;;;;;27.16;44.53;98804.71;105111;1267;72230;-22
2023/06/20 13:26:36;;;;;;;5.00;4.60;;;;;;;26.92;44.81;98796.09;105000;1267;76616;-22
2023/06/20 13:29:04;;;;;;;4.30;3.90;;;;;;;26.69;46.29;98801.14;102883;1267;2648339;-23
2023/06/20 13:31:31;;;;;;;44.70;6.30;;;;;;;26.54;46.63;98797.83;104917;1270;61263;-22
2023/06/20 13:33:59;;;;;;;4.90;4.50;;;;;;;26.27;46.93;98795.14;105532;1262;61147;-22
2023/06/20 13:36:27;;;;;;;4.90;4.50;;;;;;;26.29;48.04;98797.45;105577;1258;73877;-22
2023/06/20 13:38:54;;;;;;;6.10;4.40;;;;;;;26.47;49.37;98795.80;105588;1260;73232;-22
2023/06/20 13:41:22;;;;;;;4.70;4.30;;;;;;;26.71;49.19;98797.08;105509;1260;72591;-22
2023/06/20 13:43:50;;;;;;;4.80;4.30;;;;;;;27.03;44.90;98790.64;105188;1262;61173;-23
2023/06/20 13:46:19;;;;;;;4.90;4.50;;;;;;;27.18;45.31;98794.50;105596;1257;61160;-22
2023/06/20 13:48:48;;;;;;;7.10;4.70;;;;;;;27.08;45.96;98796.95;105554;1262;73102;-22
2023/06/20 13:51:15;;;;;;;4.60;3.80;;;;;;;27.06;46.27;98798.82;105479;1257;76796;-22
2023/06/20 13:53:45;;;;;;;5.30;4.20;;;;;;;26.92;45.03;98804.72;105148;1262;72659;-22
2023/06/20 13:56:12;;;;;;;11.00;4.30;;;;;;;26.78;44.87;98805.58;105157;1257;61179;-22
2023/06/20 13:58:40;;;;;;;5.00;4.00;;;;;;;26.57;46.24;98806.35;105227;1264;61014;-22
2023/06/20 14:01:08;;;;;;;5.40;4.30;;;;;;;26.58;46.20;98810.48;105465;1257;72118;-22
2023/06/20 14:03:35;;;;;;;5.40;4.00;;;;;;;26.87;45.22;98811.77;105529;1263;74725;-22
2023/06/20 14:06:03;;;;;;;4.70;4.30;;;;;;;26.96;43.33;98809.86;105444;1257;71410;-22
2023/06/20 14:08:30;;;;;;;6.40;4.70;;;;;;;26.85;45.29;98809.71;105463;1257;62503;-23
2023/06/20 14:10:58;;;;;;;5.20;4.70;;;;;;;26.66;45.40;98808.30;105293;1263;61720;-23
2023/06/20 14:13:26;;;;;;;24.40;5.50;;;;;;;26.44;45.96;98810.36;105408;1262;71804;-23
2023/06/20 14:15:53;;;;;;;5.80;4.90;;;;;;;26.21;46.74;98806.90;105401;1257;73169;-23
2023/06/20 14:18:23;;;;;;;5.30;4.80;;;;;;;25.97;47.63;98809.82;105255;1259;72423;-23
2023/06/20 14:20:50;;;;;;;4.90;4.40;;;;;;;25.78;48.80;98809.85;105363;1258;61069;-23
2023/06/20 14:23:18;;;;;;;4.80;4.40;;;;;;;25.59;49.18;98809.30;105237;1257;61046;-24
2023/06/20 14:33:29;;;;;;;5.70;4.90;;;;;;;25.14;50.73;98797.80;102673;1293;599568;-22
2023/06/20 14:35:56;;;;;;;5.80;4.90;;;;;;;24.89;50.90;98805.55;105021;1267;61240;-22
2023/06/20 14:38:24;;;;;;;5.90;4.60;;;;;;;24.69;52.08;98819.52;105052;1265;61334;-22
2023/06/20 14:40:52;;;;;;;8.10;3.70;;;;;;;23.66;53.88;98849.45;105079;1265;70988;-22
2023/06/20 14:43:19;;;;;;;4.20;3.40;;;;;;;22.81;56.70;98860.30;105036;1267;74272;-22
2023/06/20 14:53:25;;;;;;;8.60;4.00;;;;;;;21.24;61.97;98878.54;102674;1292;600825;-22
2023/06/20 15:03:43;;;;;;;8.20;3.30;;;;;;;20.27;65.17;98982.42;102634;1294;615897;-22
2023/06/20 15:06:10;;;;;;;7.10;3.20;;;;;;;20.15;66.89;99002.08;104842;1267;61184;-21
2023/06/20 15:08:38;;;;;;;6.50;3.30;;;;;;;19.76;70.20;99030.74;105285;1261;61183;-19
2023/06/20 15:11:05;;;;;;;12.50;7.00;;;;;;;18.18;79.82;99031.27;105260;1259;72181;-18
2023/06/20 15:13:32;;;;;;;5.80;3.60;;;;;;;17.16;84.15;99011.38;105239;1261;74159;-17
2023/06/20 15:15:59;;;;;;;3.90;3.50;;;;;;;17.05;87.47;99011.58;103430;1259;2462935;-17
2023/06/20 15:18:26;;;;;;;4.20;3.60;;;;;;;17.29;86.58;99019.65;105211;1257;61145;-17
2023/06/20 15:20:53;;;;;;;4.60;3.90;;;;;;;17.04;88.47;99020.77;105587;1258;61113;-16
2023/06/20 15:23:21;;;;;;;7.20;3.00;;;;;;;17.00;90.00;99006.36;105507;1257;72684;-16
2023/06/20 15:25:48;;;;;;;7.50;3.70;;;;;;;16.87;91.36;98999.61;105519;1257;74963;-16
2023/06/20 15:28:17;;;;;;;5.80;4.40;;;;;;;16.95;90.80;98979.89;105501;1258;72614;-16
2023/06/20 15:30:44;;;;;;;6.50;5.70;;;;;;;16.64;91.75;98974.73;105358;1257;61147;-16
2023/06/20 15:33:11;;;;;;;4.30;3.90;;;;;;;16.54;92.18;98975.78;105290;1261;61103;-16
2023/06/20 15:35:41;;;;;;;7.20;3.80;;;;;;;16.58;93.36;98974.21;105252;1257;73588;-16
2023/06/20 15:38:09;;;;;;;8.50;4.10;;;;;;;16.55;93.88;98969.77;105493;1257;73203;-17
2023/06/20 15:40:36;;;;;;;6.00;4.00;;;;;;;16.44;93.64;98966.50;105502;1258;72526;-17
2023/06/20 15:43:02;;;;;;;5.10;3.10;;;;;;;16.41;94.44;98968.14;105097;1258;61077;-16
2023/06/20 15:45:30;;;;;;;6.70;3.10;;;;;;;16.65;94.02;98971.14;105423;1260;61481;-17
2023/06/20 15:48:01;;;;;;;5.00;3.70;;;;;;;16.72;92.36;98975.30;105357;1258;71782;-17
2023/06/20 15:50:28;;;;;;;5.80;3.60;;;;;;;16.90;91.84;98980.17;105489;1258;74805;-17
2023/06/20 15:52:55;;;;;;;12.80;8.80;;;;;;;16.87;92.16;98984.05;105426;1257;72425;-17
2023/06/20 15:55:22;;;;;;;6.10;4.40;;;;;;;16.56;93.27;98991.06;105195;1257;61160;-17
2023/06/20 15:57:49;;;;;;;3.70;3.30;;;;;;;17.08;92.05;98998.13;105290;1262;61125;-17
2023/06/20 16:00:17;;;;;;;4.70;3.40;;;;;;;17.31;90.04;99006.13;105472;1257;73003;-17
2023/06/20 16:02:47;;;;;;;7.00;3.50;;;;;;;17.31;89.77;99011.21;105175;1263;74242;-18
2023/06/20 16:05:15;;;;;;;7.10;3.50;;;;;;;16.99;91.01;99008.40;105221;1262;72625;-17
2023/06/20 16:07:42;;;;;;;10.00;5.40;;;;;;;16.78;92.73;99007.93;105318;1257;61909;-17
2023/06/20 16:10:09;;;;;;;72.90;34.90;;;;;;;16.97;92.49;98997.89;105312;1258;61097;-17
2023/06/20 16:12:38;;;;;;;25.40;14.40;;;;;;;17.22;92.08;98983.40;105436;1258;73559;-17
2023/06/20 16:15:06;;;;;;;15.50;9.30;;;;;;;16.94;92.12;98972.54;105260;1266;74123;-17
2023/06/20 16:17:33;;;;;;;33.70;18.40;;;;;;;16.88;93.11;98966.51;105115;1261;72566;-17
2023/06/20 16:20:00;;;;;;;19.90;11.00;;;;;;;17.05;93.05;98958.24;105336;1258;61039;-18
2023/06/20 16:22:28;;;;;;;25.40;13.30;;;;;;;17.42;90.12;98958.70;105536;1258;61192;-18
2023/06/20 16:24:56;;;;;;;42.90;21.90;;;;;;;17.42;89.45;98952.07;105202;1258;73012;-18
2023/06/20 16:27:23;;;;;;;31.60;16.40;;;;;;;17.40;89.94;98948.79;105114;1262;74264;-18
2023/06/20 16:29:50;;;;;;;24.70;13.20;;;;;;;17.32;90.06;98941.41;105314;1258;72692;-17
2023/06/20 16:32:16;;;;;;;31.10;15.10;;;;;;;17.76;88.95;98930.35;105162;1257;60995;-17
2023/06/20 16:34:43;;;;;;;17.30;10.80;;;;;;;18.15;86.10;98915.11;105204;1258;61096;-18
2023/06/20 16:37:11;;;;;;;7.40;5.20;;;;;;;18.06;84.87;98908.09;105276;1257;73189;-17
2023/06/20 16:39:38;;;;;;;14.50;8.10;;;;;;;17.91;85.37;98900.92;105118;1257;74202;-17
2023/06/20 16:42:06;;;;;;;63.80;30.90;;;;;;;17.56;87.47;98891.74;105286;1258;72690;-17
2023/06/20 16:44:33;;;;;;;11.10;5.90;;;;;;;17.44;89.31;98881.88;105261;1258;61847;-17
2023/06/20 16:47:01;;;;;;;9.20;4.70;;;;;;;17.77;87.97;98865.66;105374;1262;61175;-17
2023/06/20 16:49:30;;;;;;;6.10;4.20;;;;;;;18.27;85.18;98858.23;105451;1259;72931;-17
2023/06/20 16:51:57;;;;;;;7.00;3.70;;;;;;;18.33;85.13;98862.15;105465;1257;74273;-17
2023/06/20 16:54:24;;;;;;;5.50;3.90;;;;;;;18.19;84.17;98859.19;105481;1258;72487;-17
2023/06/20 16:56:50;;;;;;;6.50;3.90;;;;;;;17.97;84.71;98860.77;105472;1258;61069;-18
2023/06/20 16:59:17;;;;;;;3.70;2.10;;;;;;;17.82;86.24;98864.20;105466;1262;61116;-18
2023/06/20 17:01:45;;;;;;;4.10;2.80;;;;;;;18.25;86.46;98861.80;105390;1257;73154;-18
2023/06/20 17:04:13;;;;;;;3.20;2.90;;;;;;;18.75;84.58;98855.96;105307;1259;74278;-18
2023/06/20 17:06:40;;;;;;;8.50;3.30;;;;;;;18.76;83.69;98854.73;105225;1258;72607;-18
2023/06/20 17:09:07;;;;;;;3.50;3.20;;;;;;;18.61;83.90;98851.27;105269;1258;61054;-18
2023/06/20 17:11:34;;;;;;;5.60;3.50;;;;;;;18.40;84.07;98848.64;105183;1262;61055;-18
2023/06/20 17:14:01;;;;;;;4.10;2.50;;;;;;;18.19;85.10;98854.57;105186;1258;73338;-17
2023/06/20 17:16:28;;;;;;;3.90;2.60;;;;;;;18.53;84.00;98849.95;105215;1258;74190;-18
2023/06/20 17:18:56;;;;;;;3.70;3.10;;;;;;;18.75;82.50;98853.86;105386;1258;73950;-18
2023/06/20 17:21:23;;;;;;;4.80;3.40;;;;;;;18.60;82.47;98847.52;105164;1258;61073;-18
2023/06/20 17:23:50;;;;;;;4.30;3.30;;;;;;;18.16;83.81;98850.67;105180;1262;61077;-18
2023/06/20 17:26:16;;;;;;;6.20;3.90;;;;;;;17.94;84.42;98853.32;105119;1257;73037;-18
2023/06/20 17:28:44;;;;;;;4.40;3.00;;;;;;;17.76;85.11;98854.41;105283;1259;74426;-19
2023/06/20 17:31:12;;;;;;;5.60;3.70;;;;;;;18.08;84.66;98854.84;105249;1258;72701;-18
2023/06/20 17:33:40;;;;;;;5.30;3.80;;;;;;;18.37;83.33;98857.89;105353;1258;61190;-18
2023/06/20 17:36:07;;;;;;;7.30;3.60;;;;;;;18.25;83.31;98855.93;105304;1259;61151;-18
2023/06/20 17:38:37;;;;;;;9.00;4.00;;;;;;;18.10;84.13;98862.86;105356;1257;74423;-19
2023/06/20 17:41:04;;;;;;;4.50;3.70;;;;;;;17.85;85.10;98868.77;105276;1265;74314;-18
2023/06/20 17:43:32;;;;;;;3.50;2.90;;;;;;;17.63;86.07;98867.19;105082;1257;72661;-18
2023/06/20 17:45:59;;;;;;;4.10;3.20;;;;;;;18.03;86.17;98875.05;105202;1257;61103;-18
2023/06/20 17:48:26;;;;;;;4.70;3.40;;;;;;;18.47;84.25;98871.38;105091;1258;61175;-18
2023/06/20 17:50:53;;;;;;;3.90;3.50;;;;;;;18.44;83.24;98872.20;105129;1257;72940;-18
2023/06/20 17:53:21;;;;;;;5.20;4.20;;;;;;;18.07;84.80;98877.25;105248;1258;74427;-18
2023/06/20 17:55:48;;;;;;;6.90;3.90;;;;;;;17.88;84.71;98877.89;105199;1257;72561;-18
2023/06/20 17:58:15;;;;;;;4.00;2.70;;;;;;;17.65;85.49;98884.02;105393;1258;61929;-18
2023/06/20 18:00:43;;;;;;;3.80;3.40;;;;;;;18.00;86.25;98893.39;105411;1259;61088;-18
2023/06/20 18:03:11;;;;;;;5.30;3.70;;;;;;;18.34;84.42;98896.20;105308;1262;72920;-18
2023/06/20 18:05:38;;;;;;;4.60;3.60;;;;;;;18.30;84.30;98901.48;105500;1257;74250;-18
2023/06/20 18:08:05;;;;;;;5.00;3.70;;;;;;;18.11;84.41;98905.34;105546;1257;72683;-18
2023/06/20 18:10:32;;;;;;;7.70;4.00;;;;;;;17.86;84.49;98906.14;105456;1258;61141;-18
2023/06/20 18:12:59;;;;;;;5.50;2.90;;;;;;;17.63;85.60;98913.29;105527;1257;61279;-18
2023/06/20 18:15:27;;;;;;;4.10;3.00;;;;;;;17.91;85.70;98920.13;105572;1257;72868;-18
2023/06/20 18:17:54;;;;;;;4.00;3.10;;;;;;;18.22;84.65;98924.64;105537;1262;74956;-18
2023/06/20 18:20:21;;;;;;;5.70;3.90;;;;;;;18.13;84.43;98929.93;105518;1257;72696;-18
2023/06/20 18:22:48;;;;;;;4.70;3.90;;;;;;;17.86;85.51;98934.66;105473;1257;61051;-18
2023/06/20 18:25:16;;;;;;;6.00;4.00;;;;;;;17.54;86.80;98942.86;105425;1260;61126;-18
2023/06/20 18:27:44;;;;;;;4.20;3.40;;;;;;;17.22;89.36;98961.34;105357;1262;73410;-18
2023/06/20 18:30:12;;;;;;;3.20;2.70;;;;;;;17.60;89.38;98964.31;105216;1257;74331;-18
2023/06/20 18:32:40;;;;;;;5.10;3.90;;;;;;;17.94;87.64;98965.53;105431;1262;72686;-18
2023/06/20 18:35:08;;;;;;;5.50;4.20;;;;;;;17.95;87.19;98972.70;105152;1258;61055;-18
2023/06/20 18:37:37;;;;;;;11.20;6.90;;;;;;;17.78;87.48;98980.15;105517;1258;61171;-19
2023/06/20 18:40:07;;;;;;;27.30;15.20;;;;;;;17.28;90.60;98994.33;105416;1259;72995;-18
2023/06/20 18:42:33;;;;;;;12.60;7.60;;;;;;;17.48;91.77;98995.09;105372;1258;71883;-18
2023/06/20 18:45:00;;;;;;;8.50;6.40;;;;;;;17.91;89.11;98992.08;105314;1257;73267;-18
2023/06/20 18:47:27;;;;;;;11.50;6.90;;;;;;;17.96;87.34;98994.13;105377;1258;61166;-19
2023/06/20 18:49:55;;;;;;;12.50;5.90;;;;;;;17.85;86.88;98989.45;105160;1262;61190;-19
2023/06/20 18:52:22;;;;;;;13.20;7.70;;;;;;;17.67;86.54;98989.79;105503;1258;73015;-19
2023/06/20 18:54:49;;;;;;;6.10;4.40;;;;;;;17.89;87.05;98986.84;105246;1259;74242;-19
2023/06/20 18:57:16;;;;;;;6.90;5.00;;;;;;;17.90;87.49;98987.05;105458;1257;72768;-19
2023/06/20 18:59:43;;;;;;;23.20;13.40;;;;;;;17.96;87.23;98981.50;105409;1262;61055;-19
2023/06/20 19:02:10;;;;;;;109.20;56.00;;;;;;;17.17;91.23;98998.70;105263;1258;61172;-19
2023/06/20 19:04:41;;;;;;;19.80;11.40;;;;;;;16.81;94.72;99009.23;105491;1257;74207;-19
2023/06/20 19:07:08;;;;;;;20.80;11.60;;;;;;;17.27;93.82;99012.39;105335;1258;73922;-19
2023/06/20 19:09:39;;;;;;;23.10;12.10;;;;;;;17.71;90.38;99011.36;105182;1258;72713;-19
2023/06/20 19:12:07;;;;;;;11.30;6.70;;;;;;;17.81;88.61;99010.24;105162;1258;61765;-19
2023/06/20 19:14:34;;;;;;;6.30;5.40;;;;;;;17.62;88.06;99016.44;105196;1262;61164;-19
2023/06/20 19:17:02;;;;;;;5.90;3.10;;;;;;;17.37;88.54;99024.92;105474;1257;74356;-18
2023/06/20 19:19:30;;;;;;;4.40;3.50;;;;;;;17.66;88.62;99023.52;105272;1260;74388;-19
2023/06/20 19:21:57;;;;;;;6.20;3.60;;;;;;;18.06;86.79;99022.62;105648;1253;72519;-19
2023/06/20 19:24:26;;;;;;;5.00;4.20;;;;;;;18.06;85.73;99017.29;105498;1253;61727;-19
2023/06/20 19:26:53;;;;;;;4.90;4.00;;;;;;;17.84;85.73;99021.98;105537;1257;61164;-19
2023/06/20 19:29:20;;;;;;;5.10;4.30;;;;;;;17.60;86.43;99021.48;105615;1253;74094;-19
2023/06/20 19:31:47;;;;;;;6.20;3.10;;;;;;;17.39;87.67;99021.00;105598;1253;74344;-19
2023/06/20 19:34:13;;;;;;;9.00;5.70;;;;;;;17.70;88.19;99019.71;105108;1254;72742;-19
2023/06/20 19:36:40;;;;;;;8.00;6.10;;;;;;;18.14;86.45;99011.00;105408;1253;61066;-19
2023/06/20 19:39:08;;;;;;;8.00;4.30;;;;;;;18.20;85.75;99005.89;105580;1254;61166;-19
2023/06/20 19:41:35;;;;;;;6.30;4.10;;;;;;;18.02;85.68;99010.19;105669;1257;72766;-19
2023/06/20 19:44:02;;;;;;;6.90;4.30;;;;;;;17.76;86.04;99012.90;105585;1255;74172;-20
2023/06/20 19:46:29;;;;;;;4.30;2.90;;;;;;;17.53;86.85;99017.92;105501;1254;72457;-19
2023/06/20 19:48:58;;;;;;;3.80;3.20;;;;;;;17.91;87.14;99015.46;105560;1253;61146;-19
2023/06/20 19:51:31;;;;;;;3.70;3.30;;;;;;;18.35;85.42;99018.23;105547;1254;61196;-19
2023/06/20 19:53:59;;;;;;;3.80;3.40;;;;;;;18.32;84.51;99025.41;105692;1253;73886;-19
2023/06/20 19:56:26;;;;;;;6.30;4.50;;;;;;;18.09;84.84;99027.26;105510;1253;74339;-19
2023/06/20 19:58:53;;;;;;;4.90;4.10;;;;;;;17.77;86.14;99028.11;105575;1253;72749;-19
2023/06/20 20:01:20;;;;;;;6.20;3.40;;;;;;;17.54;86.99;99021.48;105530;1253;61180;-19
2023/06/20 20:03:47;;;;;;;3.90;3.10;;;;;;;17.92;86.79;99014.27;105577;1257;61113;-19
2023/06/20 20:06:14;;;;;;;5.20;4.20;;;;;;;18.36;85.07;99010.52;105750;1253;73672;-19
2023/06/20 20:08:42;;;;;;;4.40;4.00;;;;;;;18.40;84.24;99003.80;105679;1253;74287;-19
2023/06/20 20:11:09;;;;;;;9.00;4.80;;;;;;;18.23;84.54;99004.81;105656;1253;72922;-19
2023/06/20 20:13:36;;;;;;;5.80;4.70;;;;;;;18.02;84.95;99001.76;105479;1253;61223;-20
2023/06/20 20:16:03;;;;;;;5.50;3.20;;;;;;;17.85;85.63;98999.08;105489;1257;61135;-20
2023/06/20 20:18:30;;;;;;;4.20;3.70;;;;;;;18.20;85.68;98994.13;105669;1257;73772;-20
2023/06/20 20:20:57;;;;;;;5.30;3.80;;;;;;;18.63;84.08;98991.27;105603;1257;74328;-20
2023/06/20 20:23:24;;;;;;;5.20;4.10;;;;;;;18.60;83.56;98991.16;105565;1255;72732;-20
2023/06/20 20:26:08;;;;;;;5.20;4.30;;;;;;;18.36;83.93;98994.84;105480;1258;61333;-20
2023/06/20 20:28:36;;;;;;;6.50;4.60;;;;;;;18.10;84.59;98993.35;105547;1257;61055;-20
2023/06/20 20:31:03;;;;;;;5.50;4.70;;;;;;;17.83;84.88;98986.96;105683;1253;73861;-20
2023/06/20 20:33:30;;;;;;;4.70;3.90;;;;;;;18.10;85.29;98991.75;105690;1253;74090;-20
2023/06/20 20:35:57;;;;;;;4.90;4.30;;;;;;;18.42;84.27;98994.62;105567;1253;72585;-20
2023/06/20 20:38:24;;;;;;;8.40;6.40;;;;;;;18.33;83.92;98999.30;105599;1253;61154;-21
2023/06/20 20:40:51;;;;;;;8.90;7.40;;;;;;;18.03;84.92;99006.55;105590;1258;61123;-20
2023/06/20 20:43:20;;;;;;;7.60;6.40;;;;;;;17.68;86.73;99005.70;105550;1253;74435;-20
2023/06/20 20:45:49;;;;;;;5.10;4.20;;;;;;;17.44;88.14;99007.16;105551;1257;74290;-20
2023/06/20 20:48:16;;;;;;;6.20;4.20;;;;;;;17.77;88.56;99014.06;105722;1253;72512;-21
2023/06/20 20:50:44;;;;;;;7.60;4.30;;;;;;;18.17;86.98;99018.89;105653;1253;61154;-20
2023/06/20 20:53:10;;;;;;;6.20;4.40;;;;;;;18.19;86.44;99016.21;105483;1257;61156;-21
2023/06/20 20:55:37;;;;;;;7.40;4.50;;;;;;;18.02;86.84;99016.30;105530;1253;73695;-21
2023/06/20 20:58:06;;;;;;;4.90;4.40;;;;;;;17.82;87.62;99008.70;105704;1257;73123;-21
2023/06/20 21:00:33;;;;;;;4.20;3.60;;;;;;;17.65;88.85;99003.96;105657;1253;73043;-21
2023/06/20 21:03:04;;;;;;;4.10;3.50;;;;;;;18.06;88.68;98993.98;105423;1253;61074;-20
2023/06/20 21:05:32;;;;;;;5.20;4.20;;;;;;;18.56;86.29;98987.91;105511;1257;61180;-21
2023/06/20 21:07:59;;;;;;;4.70;4.20;;;;;;;18.58;85.01;98988.52;105594;1253;73654;-21
2023/06/20 21:10:26;;;;;;;5.20;4.70;;;;;;;18.40;84.90;98986.41;105593;1257;74448;-21
2023/06/20 21:12:53;;;;;;;5.90;4.10;;;;;;;18.13;85.20;98991.74;105631;1253;71577;-21
2023/06/20 21:15:20;;;;;;;4.10;3.60;;;;;;;17.87;86.21;98992.47;105597;1253;61848;-21
2023/06/20 21:17:47;;;;;;;5.00;3.50;;;;;;;18.15;86.35;98992.39;105620;1257;61126;-21
2023/06/20 21:20:14;;;;;;;5.70;3.70;;;;;;;18.52;84.70;98984.45;105687;1253;72802;-21
2023/06/20 21:22:42;;;;;;;5.50;4.20;;;;;;;18.48;83.82;98983.21;105702;1253;74922;-21
2023/06/20 21:25:10;;;;;;;5.50;4.40;;;;;;;18.22;84.38;98976.86;105683;1253;72684;-21